Time;durP1;ratioP1;P1;durP2;ratioP2;P2;SDS_P1;SDS_P2;PMS_P1;PMS_P2;Temp;Humidity;BMP_temperature;BMP_pressure;BME280_temperature;BME280_humidity;BME280_pressure;Samples;Min_cycle;Max_cycle;Signal;HPM_P1;HPM_P2
2022/07/21 00:00:32;;;;;;;14.93;8.80;;;21.90;99.90;;;;;;5076368;28;20024;-92
2022/07/21 00:02:59;;;;;;;18.17;9.70;;;21.90;99.90;;;;;;5076592;28;20036;-89
2022/07/21 00:05:25;;;;;;;14.70;8.73;;;21.90;99.90;;;;;;5059005;28;20116;-91
2022/07/21 00:07:52;;;;;;;12.27;8.65;;;21.90;99.90;;;;;;5077028;28;20035;-92
2022/07/21 00:10:18;;;;;;;13.80;8.00;;;21.80;99.90;;;;;;5059186;28;20029;-93
2022/07/21 00:12:44;;;;;;;14.75;8.57;;;21.80;99.90;;;;;;5058690;28;20465;-92
2022/07/21 00:15:12;;;;;;;12.07;7.70;;;21.80;99.90;;;;;;5077116;28;20082;-93
2022/07/21 00:17:37;;;;;;;13.85;8.30;;;21.80;99.90;;;;;;5058267;28;20028;-92
2022/07/21 00:20:05;;;;;;;13.88;7.45;;;21.80;99.90;;;;;;5076428;28;20025;-92
2022/07/21 00:22:30;;;;;;;11.23;7.30;;;21.80;99.90;;;;;;5058445;28;20131;-92
2022/07/21 00:24:56;;;;;;;11.90;7.55;;;21.80;99.90;;;;;;5058821;28;20114;-92
2022/07/21 00:27:22;;;;;;;8.95;7.07;;;21.80;99.90;;;;;;5055408;28;20048;-93
2022/07/21 00:29:47;;;;;;;9.50;6.95;;;21.80;99.90;;;;;;5055473;28;20028;-93
2022/07/21 00:32:13;;;;;;;10.32;7.03;;;21.90;99.90;;;;;;5055605;28;20103;-93
2022/07/21 00:34:38;;;;;;;12.80;7.57;;;21.80;99.90;;;;;;5055238;28;20064;-93
2022/07/21 00:37:04;;;;;;;10.82;6.82;;;21.80;99.90;;;;;;5056019;28;20031;-91
2022/07/21 00:39:30;;;;;;;10.70;7.57;;;21.80;99.90;;;;;;5055313;28;20076;-93
2022/07/21 00:41:55;;;;;;;12.38;7.30;;;21.80;99.90;;;;;;5056345;28;20095;-93
2022/07/21 00:44:27;;;;;;;12.13;6.90;;;21.80;99.90;;;;;;5056180;28;20025;-92
2022/07/21 00:46:53;;;;;;;10.43;6.80;;;21.80;99.90;;;;;;5054846;28;20433;-91
2022/07/21 00:49:19;;;;;;;9.93;7.03;;;21.80;99.90;;;;;;5055658;28;20377;-92
2022/07/21 00:51:46;;;;;;;9.55;6.47;;;21.80;99.90;;;;;;5054821;28;20047;-92
2022/07/21 00:54:14;;;;;;;9.57;6.80;;;21.70;99.90;;;;;;5055300;28;20474;-91
2022/07/21 00:56:40;;;;;;;9.88;6.90;;;21.70;99.90;;;;;;5054917;28;20090;-92
2022/07/21 00:59:05;;;;;;;10.05;6.55;;;21.60;99.90;;;;;;5056162;28;20029;-92
2022/07/21 01:01:31;;;;;;;9.38;6.93;;;21.70;99.90;;;;;;5055343;28;20032;-92
2022/07/21 01:03:57;;;;;;;11.10;6.95;;;21.60;99.90;;;;;;5055166;28;20036;-91
2022/07/21 01:06:26;;;;;;;9.65;7.03;;;21.60;99.90;;;;;;5055080;28;20025;-93
2022/07/21 01:08:52;;;;;;;10.82;6.72;;;21.60;99.90;;;;;;5054900;28;20028;-93
2022/07/21 01:11:20;;;;;;;11.70;7.18;;;21.70;99.90;;;;;;5054878;28;20028;-92
2022/07/21 01:13:47;;;;;;;10.18;6.28;;;21.70;99.90;;;;;;5054581;28;20041;-93
2022/07/21 01:16:13;;;;;;;9.20;6.20;;;21.60;99.90;;;;;;5054851;28;20064;-92
2022/07/21 01:18:39;;;;;;;6.93;5.35;;;21.60;99.90;;;;;;5054690;28;20021;-93
2022/07/21 01:21:24;;;;;;;10.65;6.20;;;21.70;99.90;;;;;;5054485;28;20024;-92
2022/07/21 01:23:49;;;;;;;7.85;5.95;;;21.70;99.90;;;;;;5054672;28;20503;-92
2022/07/21 01:26:15;;;;;;;7.95;5.68;;;21.70;99.90;;;;;;5049394;28;20036;-92
2022/07/21 01:28:40;;;;;;;10.95;5.80;;;21.70;99.90;;;;;;5057144;28;20021;-91
2022/07/21 01:31:06;;;;;;;8.27;5.43;;;21.70;99.90;;;;;;5057776;28;20036;-93
2022/07/21 01:33:32;;;;;;;9.40;6.30;;;21.70;99.90;;;;;;5057161;28;20063;-92
2022/07/21 01:35:57;;;;;;;10.40;6.63;;;21.70;99.90;;;;;;5058057;28;20055;-93
2022/07/21 01:43:51;;;;;;;10.00;6.40;;;21.70;99.90;;;;;;5074937;28;20044;-92
2022/07/21 01:46:17;;;;;;;10.52;6.22;;;21.80;99.90;;;;;;5057337;28;20024;-92
2022/07/21 01:48:44;;;;;;;10.48;6.25;;;21.80;99.90;;;;;;5057237;28;20076;-92
2022/07/21 01:51:10;;;;;;;11.23;6.43;;;21.80;99.90;;;;;;5057525;28;20116;-92
2022/07/21 01:53:36;;;;;;;10.75;6.47;;;21.80;99.90;;;;;;5056808;28;20036;-92
2022/07/21 01:56:02;;;;;;;13.95;6.85;;;21.80;99.90;;;;;;5075552;28;20094;-91
2022/07/21 01:58:28;;;;;;;9.45;6.47;;;21.90;99.90;;;;;;5057400;28;20020;-92
2022/07/21 02:00:54;;;;;;;11.18;6.88;;;21.80;99.90;;;;;;5074644;28;20021;-92
2022/07/21 02:03:20;;;;;;;13.75;6.88;;;21.80;99.90;;;;;;5057182;28;20437;-91
2022/07/21 02:05:45;;;;;;;11.32;6.68;;;21.80;99.90;;;;;;5056694;28;20032;-91
2022/07/21 02:08:11;;;;;;;9.85;6.70;;;21.80;99.90;;;;;;5056992;28;20032;-92
2022/07/21 02:10:37;;;;;;;9.40;6.95;;;21.80;99.90;;;;;;5056607;28;20031;-92
2022/07/21 02:13:03;;;;;;;11.60;7.13;;;21.80;99.90;;;;;;5057046;28;20024;-91
2022/07/21 02:15:29;;;;;;;10.77;7.40;;;21.80;99.90;;;;;;5056608;28;20028;-90
2022/07/21 02:17:56;;;;;;;10.43;7.10;;;21.80;99.90;;;;;;5073760;28;20028;-90
2022/07/21 02:20:22;;;;;;;12.35;7.53;;;21.80;99.90;;;;;;5057100;28;20035;-90
2022/07/21 02:22:48;;;;;;;11.77;7.10;;;21.80;99.90;;;;;;5056100;28;20405;-90
2022/07/21 02:25:14;;;;;;;10.48;7.97;;;21.70;99.90;;;;;;5056968;28;20036;-91
2022/07/21 02:27:41;;;;;;;12.32;8.57;;;21.70;99.90;;;;;;5055865;28;20127;-91
2022/07/21 02:30:07;;;;;;;14.60;8.50;;;21.70;99.90;;;;;;5074383;28;20025;-91
2022/07/21 02:32:33;;;;;;;12.02;8.20;;;21.70;99.90;;;;;;5056545;28;20461;-89
2022/07/21 02:34:58;;;;;;;12.02;7.90;;;21.80;99.90;;;;;;5056472;28;20028;-91
2022/07/21 02:37:24;;;;;;;11.05;7.72;;;21.80;99.90;;;;;;5056469;28;20116;-91
2022/07/21 02:39:49;;;;;;;11.77;7.65;;;21.70;99.90;;;;;;5073944;28;20024;-91
2022/07/21 02:42:15;;;;;;;14.38;8.40;;;21.70;99.90;;;;;;5056687;28;20520;-90
2022/07/21 02:44:41;;;;;;;10.38;8.35;;;21.70;99.90;;;;;;5056019;28;20027;-90
2022/07/21 02:47:06;;;;;;;12.60;8.15;;;21.60;99.90;;;;;;5056899;28;20025;-90
2022/07/21 02:49:32;;;;;;;13.00;8.45;;;21.60;99.90;;;;;;5056444;28;20028;-89
2022/07/21 02:51:58;;;;;;;13.10;7.65;;;21.60;99.90;;;;;;5056073;28;20067;-90
2022/07/21 02:54:23;;;;;;;13.02;8.60;;;21.50;99.90;;;;;;5056290;28;20450;-90
2022/07/21 02:56:49;;;;;;;12.90;8.43;;;21.50;99.90;;;;;;5054868;28;20466;-90
2022/07/21 02:59:15;;;;;;;11.68;8.27;;;21.50;99.90;;;;;;5073791;28;20036;-90
2022/07/21 03:01:41;;;;;;;12.18;8.65;;;21.50;99.90;;;;;;5055926;28;20041;-90
2022/07/21 03:04:06;;;;;;;10.90;8.18;;;21.40;99.90;;;;;;5056556;28;20028;-90
2022/07/21 03:06:32;;;;;;;11.90;8.35;;;21.50;99.90;;;;;;5056198;28;20462;-90
2022/07/21 03:08:58;;;;;;;15.68;8.98;;;21.50;99.90;;;;;;5073917;28;20028;-90
2022/07/21 03:11:23;;;;;;;15.35;8.20;;;21.60;99.90;;;;;;5057691;28;20035;-90
2022/07/21 03:13:49;;;;;;;10.98;8.95;;;21.60;99.90;;;;;;5059871;28;20020;-90
2022/07/21 03:16:15;;;;;;;15.48;8.45;;;21.60;99.90;;;;;;5060458;28;20031;-90
2022/07/21 03:18:41;;;;;;;12.55;8.60;;;21.60;99.90;;;;;;5060401;28;20025;-90
2022/07/21 03:21:07;;;;;;;14.40;7.70;;;21.60;99.90;;;;;;5060433;28;20029;-90
2022/07/21 03:23:33;;;;;;;12.77;8.65;;;21.60;99.90;;;;;;5060285;28;20086;-91
2022/07/21 03:25:58;;;;;;;12.68;8.38;;;21.60;99.90;;;;;;5059626;28;20033;-89
2022/07/21 03:28:24;;;;;;;14.07;8.68;;;21.60;99.90;;;;;;5059769;28;20354;-90
2022/07/21 03:30:50;;;;;;;12.35;8.25;;;21.60;99.90;;;;;;5077122;28;20029;-89
2022/07/21 03:33:16;;;;;;;12.32;8.55;;;21.70;99.90;;;;;;5078235;28;20044;-90
2022/07/21 03:35:42;;;;;;;11.27;8.35;;;21.70;99.90;;;;;;5077137;28;20028;-90
2022/07/21 03:38:08;;;;;;;13.75;9.25;;;21.70;99.90;;;;;;5077799;28;20114;-91
2022/07/21 03:40:35;;;;;;;12.30;8.88;;;21.70;99.90;;;;;;5060041;28;20020;-90
2022/07/21 03:43:04;;;;;;;15.07;9.73;;;21.60;99.90;;;;;;5077315;28;20037;-90
2022/07/21 03:45:32;;;;;;;12.40;8.40;;;21.70;99.90;;;;;;5059657;28;20028;-91
2022/07/21 03:47:59;;;;;;;14.63;8.85;;;21.70;99.90;;;;;;5059134;28;20021;-90
2022/07/21 03:50:26;;;;;;;14.45;8.65;;;21.70;99.90;;;;;;5059799;28;20524;-90
2022/07/21 03:52:51;;;;;;;13.43;8.60;;;21.70;99.90;;;;;;5058926;28;20388;-90
2022/07/21 03:55:18;;;;;;;11.98;8.25;;;21.70;99.90;;;;;;5076869;28;20104;-90
2022/07/21 03:57:54;;;;;;;13.75;8.60;;;21.80;99.90;;;;;;5059005;28;20025;-90
2022/07/21 04:00:34;;;;;;;14.70;8.77;;;21.70;99.90;;;;;;5077087;28;20028;-90
2022/07/21 04:03:01;;;;;;;14.60;8.88;;;21.70;99.90;;;;;;5058763;28;20040;-90
2022/07/21 04:05:28;;;;;;;13.18;8.43;;;21.70;99.90;;;;;;5059510;28;20024;-91
2022/07/21 04:07:55;;;;;;;12.15;8.48;;;21.60;99.90;;;;;;5058615;28;20021;-91
2022/07/21 04:10:24;;;;;;;12.35;8.60;;;21.70;99.90;;;;;;5077065;28;20056;-91
2022/07/21 04:12:50;;;;;;;13.13;8.70;;;21.70;99.90;;;;;;5058693;28;20029;-91
2022/07/21 04:15:17;;;;;;;17.33;9.50;;;21.70;99.90;;;;;;5059468;28;20032;-91
2022/07/21 04:17:43;;;;;;;13.40;9.60;;;21.70;99.90;;;;;;5058955;28;20021;-91
2022/07/21 04:20:09;;;;;;;13.02;9.13;;;21.60;99.90;;;;;;5058981;28;20024;-91
2022/07/21 04:22:42;;;;;;;16.08;9.40;;;21.60;99.90;;;;;;5058775;28;20396;-90
2022/07/21 04:25:08;;;;;;;15.85;9.00;;;21.60;99.90;;;;;;5059229;28;20040;-91
2022/07/21 04:27:35;;;;;;;15.10;9.70;;;21.50;99.90;;;;;;5058874;28;20053;-90
2022/07/21 04:30:01;;;;;;;11.05;8.15;;;21.50;99.90;;;;;;5076314;28;20066;-90
2022/07/21 04:32:27;;;;;;;13.07;9.25;;;21.60;99.90;;;;;;5076509;28;20039;-90
2022/07/21 04:34:52;;;;;;;12.15;9.20;;;21.50;99.90;;;;;;5058358;28;20115;-90
2022/07/21 04:37:18;;;;;;;14.93;9.15;;;21.50;99.90;;;;;;5059069;28;20024;-90
2022/07/21 04:39:44;;;;;;;12.93;8.73;;;21.50;99.90;;;;;;5076046;28;20028;-90
2022/07/21 04:42:10;;;;;;;14.38;9.30;;;21.50;99.90;;;;;;5058846;28;20032;-91
2022/07/21 04:44:35;;;;;;;15.60;9.75;;;21.50;99.90;;;;;;5058692;28;20031;-91
2022/07/21 04:47:01;;;;;;;13.07;9.38;;;21.60;99.90;;;;;;5058451;28;20591;-90
2022/07/21 04:49:27;;;;;;;12.20;9.35;;;21.60;99.90;;;;;;5058404;28;20028;-90
2022/07/21 04:51:52;;;;;;;15.05;10.00;;;21.50;99.90;;;;;;5057349;28;20028;-91
2022/07/21 04:54:18;;;;;;;14.52;9.32;;;21.50;99.90;;;;;;5075773;28;20389;-91
2022/07/21 04:56:44;;;;;;;14.35;9.23;;;21.50;99.90;;;;;;5057301;28;20068;-90
2022/07/21 04:59:10;;;;;;;12.77;9.38;;;21.50;99.90;;;;;;5075685;28;20119;-90
2022/07/21 05:01:37;;;;;;;12.88;9.40;;;21.60;99.90;;;;;;5058351;28;20525;-90
2022/07/21 05:04:03;;;;;;;14.90;9.80;;;21.70;99.90;;;;;;5075643;28;20024;-91
2022/07/21 05:06:29;;;;;;;12.45;9.10;;;21.70;99.90;;;;;;5075953;28;20464;-90
2022/07/21 05:08:54;;;;;;;14.40;9.27;;;21.70;99.90;;;;;;5057912;28;20024;-91
2022/07/21 05:11:20;;;;;;;17.08;9.93;;;21.80;99.90;;;;;;5058179;28;20020;-91
2022/07/21 05:13:46;;;;;;;14.27;9.00;;;21.80;99.90;;;;;;5075120;28;20029;-90
2022/07/21 05:16:11;;;;;;;17.38;10.63;;;21.80;99.90;;;;;;5075543;28;20025;-91
2022/07/21 05:18:37;;;;;;;15.65;9.32;;;21.80;99.90;;;;;;5058131;28;20021;-91
2022/07/21 05:21:03;;;;;;;13.35;9.45;;;21.90;99.90;;;;;;5075222;28;20024;-91
2022/07/21 05:23:28;;;;;;;14.50;9.15;;;21.90;99.90;;;;;;5075350;28;20461;-90
2022/07/21 05:25:54;;;;;;;11.20;8.65;;;21.90;99.90;;;;;;5057003;28;20037;-91
2022/07/21 05:28:19;;;;;;;16.17;9.60;;;21.90;99.90;;;;;;5075374;28;20052;-91
2022/07/21 05:30:45;;;;;;;14.40;9.00;;;22.00;99.90;;;;;;5057250;28;20438;-91
2022/07/21 05:33:11;;;;;;;13.73;9.32;;;22.00;99.90;;;;;;5057655;28;20071;-91
2022/07/21 05:35:36;;;;;;;14.52;9.13;;;22.10;99.90;;;;;;5057195;28;20031;-91
2022/07/21 05:38:02;;;;;;;13.75;9.40;;;22.10;99.90;;;;;;5057259;28;20576;-91
2022/07/21 05:40:28;;;;;;;15.90;9.15;;;22.10;99.90;;;;;;5074842;28;20051;-91
2022/07/21 05:42:54;;;;;;;12.38;9.00;;;22.10;99.90;;;;;;5056311;28;20474;-90
2022/07/21 05:45:19;;;;;;;15.98;9.35;;;22.10;99.90;;;;;;5074621;28;20024;-91
2022/07/21 05:47:45;;;;;;;14.23;9.60;;;22.10;99.90;;;;;;5057158;28;20032;-90
2022/07/21 05:50:11;;;;;;;16.83;8.90;;;22.00;99.90;;;;;;5074951;28;20062;-91
2022/07/21 05:52:37;;;;;;;13.23;8.90;;;22.00;99.90;;;;;;5057232;28;20024;-90
2022/07/21 05:55:04;;;;;;;15.32;9.32;;;21.90;99.90;;;;;;5074378;28;20500;-91
2022/07/21 05:57:29;;;;;;;13.15;9.73;;;21.90;99.90;;;;;;5057274;28;20024;-92
2022/07/21 05:59:55;;;;;;;14.80;9.05;;;21.90;99.90;;;;;;5074716;28;20114;-92
2022/07/21 06:02:21;;;;;;;16.88;9.45;;;21.90;99.90;;;;;;5074731;28;20158;-91
2022/07/21 06:04:47;;;;;;;13.93;8.77;;;21.90;99.90;;;;;;5071806;28;20020;-91
2022/07/21 06:07:12;;;;;;;15.02;8.38;;;21.90;99.90;;;;;;5072578;28;20445;-91
2022/07/21 06:09:38;;;;;;;14.15;8.73;;;21.90;99.90;;;;;;5057859;28;20363;-91
2022/07/21 06:12:04;;;;;;;13.75;8.98;;;22.00;99.90;;;;;;5056286;28;20079;-91
2022/07/21 06:14:29;;;;;;;13.98;9.23;;;22.00;99.90;;;;;;5073897;28;20021;-91
2022/07/21 06:16:55;;;;;;;13.35;9.13;;;22.00;99.90;;;;;;5055334;28;20028;-91
2022/07/21 06:19:21;;;;;;;12.82;8.88;;;22.00;99.90;;;;;;5057194;28;20025;-90
2022/07/21 06:21:46;;;;;;;12.75;9.02;;;22.10;99.90;;;;;;5056278;28;20424;-90
2022/07/21 06:24:13;;;;;;;12.38;8.90;;;22.10;99.90;;;;;;5074320;28;20424;-90
2022/07/21 06:26:39;;;;;;;10.52;7.80;;;22.20;99.90;;;;;;5074046;28;20059;-90
2022/07/21 06:29:06;;;;;;;10.75;8.00;;;22.40;99.90;;;;;;5056093;28;20576;-90
2022/07/21 06:31:32;;;;;;;11.85;8.05;;;22.50;99.90;;;;;;5056865;28;20028;-90
2022/07/21 06:33:57;;;;;;;12.75;7.88;;;22.50;99.90;;;;;;5055884;28;20024;-90
2022/07/21 06:36:23;;;;;;;10.68;7.35;;;22.50;99.90;;;;;;5056512;28;20115;-91
2022/07/21 06:38:48;;;;;;;8.90;7.15;;;22.50;99.90;;;;;;5056291;28;20027;-90
2022/07/21 06:41:14;;;;;;;9.50;6.47;;;22.60;99.90;;;;;;5056348;28;20039;-91
2022/07/21 06:43:39;;;;;;;11.15;6.68;;;22.70;99.90;;;;;;5055974;28;20087;-91
2022/07/21 06:46:05;;;;;;;11.60;6.22;;;22.70;99.90;;;;;;5054729;28;20029;-90
2022/07/21 06:48:31;;;;;;;8.90;6.32;;;22.70;99.90;;;;;;5056150;28;20051;-91
2022/07/21 06:50:56;;;;;;;8.50;6.80;;;22.70;99.90;;;;;;5056111;28;20028;-92
2022/07/21 06:53:23;;;;;;;9.48;6.47;;;22.70;99.90;;;;;;5056206;28;20029;-91
2022/07/21 06:55:52;;;;;;;11.98;6.80;;;22.70;99.90;;;;;;5055976;28;20067;-91
2022/07/21 06:58:22;;;;;;;9.68;7.20;;;22.70;99.90;;;;;;5073887;28;20021;-90
2022/07/21 07:00:49;;;;;;;9.40;7.10;;;22.80;99.90;;;;;;5056226;28;20123;-91
2022/07/21 07:03:15;;;;;;;11.43;6.93;;;22.70;99.90;;;;;;5056051;28;20534;-90
2022/07/21 07:05:43;;;;;;;8.65;5.90;;;22.70;99.90;;;;;;5053969;28;20043;-91
2022/07/21 07:08:09;;;;;;;10.50;6.55;;;22.70;99.90;;;;;;5073263;28;20020;-89
2022/07/21 07:10:35;;;;;;;7.57;5.78;;;22.70;99.90;;;;;;5056000;28;20539;-91
2022/07/21 07:13:01;;;;;;;9.45;6.18;;;22.70;99.90;;;;;;5055583;28;20108;-90
2022/07/21 07:15:27;;;;;;;9.02;6.60;;;22.70;99.90;;;;;;5055969;28;20033;-90
2022/07/21 07:17:54;;;;;;;9.35;6.15;;;22.70;99.90;;;;;;5055457;28;20052;-90
2022/07/21 07:20:20;;;;;;;10.95;6.93;;;22.70;99.90;;;;;;5056145;28;20031;-90
2022/07/21 07:22:46;;;;;;;9.05;6.03;;;22.60;99.90;;;;;;5055606;28;20028;-90
2022/07/21 07:25:16;;;;;;;7.28;5.80;;;22.70;99.90;;;;;;5055294;28;20031;-90
2022/07/21 07:27:42;;;;;;;11.90;6.43;;;22.70;99.90;;;;;;5055461;28;20052;-90
2022/07/21 07:30:09;;;;;;;10.10;6.20;;;22.80;99.90;;;;;;5055361;28;20725;-90
2022/07/21 07:32:34;;;;;;;9.23;6.07;;;22.90;99.90;;;;;;5073313;28;20028;-89
2022/07/21 07:35:00;;;;;;;8.60;6.13;;;22.90;99.90;;;;;;5049615;28;20021;-90
2022/07/21 07:37:25;;;;;;;12.05;7.07;;;22.90;99.90;;;;;;5035872;28;20091;-89
2022/07/21 07:39:51;;;;;;;12.15;7.40;;;23.00;99.90;;;;;;5035696;28;20156;-87
2022/07/21 07:42:17;;;;;;;23.60;12.00;;;23.00;99.90;;;;;;5040335;28;20389;-88
2022/07/21 07:44:42;;;;;;;148.38;56.42;;;23.00;99.90;;;;;;5055378;28;20021;-90
2022/07/21 07:47:08;;;;;;;116.28;45.90;;;23.00;99.90;;;;;;5054695;28;20025;-89
2022/07/21 07:49:34;;;;;;;43.20;19.10;;;23.00;99.90;;;;;;5052878;28;20477;-90
2022/07/21 07:51:59;;;;;;;19.30;10.57;;;23.10;99.90;;;;;;5054765;28;20032;-89
2022/07/21 07:54:25;;;;;;;14.43;7.13;;;23.10;99.90;;;;;;5073449;28;20029;-91
2022/07/21 07:56:51;;;;;;;12.25;6.90;;;23.20;99.90;;;;;;5055339;28;20060;-90
2022/07/21 07:59:16;;;;;;;9.18;5.90;;;23.20;99.90;;;;;;5059673;28;20031;-89
2022/07/21 08:01:42;;;;;;;10.10;6.57;;;23.10;99.90;;;;;;5076894;28;20016;-90
2022/07/21 08:04:08;;;;;;;8.48;5.95;;;23.10;99.90;;;;;;5059096;28;20519;-88
2022/07/21 08:06:34;;;;;;;9.45;6.47;;;23.30;99.90;;;;;;5059324;28;20021;-88
2022/07/21 08:08:59;;;;;;;8.60;6.18;;;23.40;99.90;;;;;;5076349;28;20028;-88
2022/07/21 08:11:25;;;;;;;9.52;6.32;;;23.50;99.90;;;;;;5059172;28;20048;-89
2022/07/21 08:13:52;;;;;;;8.88;6.05;;;23.50;99.90;;;;;;5058539;28;20033;-89
2022/07/21 08:16:17;;;;;;;10.88;6.05;;;23.60;99.90;;;;;;5076687;28;20033;-89
2022/07/21 08:18:43;;;;;;;9.93;6.00;;;23.60;99.90;;;;;;5059114;28;20028;-89
2022/07/21 08:21:10;;;;;;;6.55;5.25;;;23.70;99.90;;;;;;5058698;28;20147;-89
2022/07/21 08:23:36;;;;;;;9.82;6.00;;;23.70;99.90;;;;;;5076260;28;20032;-89
2022/07/21 08:26:02;;;;;;;10.15;6.13;;;23.70;99.90;;;;;;5075520;28;20461;-88
2022/07/21 08:28:28;;;;;;;9.43;5.95;;;23.60;99.90;;;;;;5058547;28;20112;-89
2022/07/21 08:30:53;;;;;;;8.27;6.07;;;23.60;99.90;;;;;;5076012;28;20036;-90
2022/07/21 08:33:19;;;;;;;8.40;5.80;;;23.60;99.90;;;;;;5058390;28;20052;-90
2022/07/21 08:35:45;;;;;;;8.55;6.32;;;23.80;99.90;;;;;;5076186;28;20103;-89
2022/07/21 08:38:11;;;;;;;9.20;5.60;;;23.80;99.90;;;;;;5075935;28;20032;-90
2022/07/21 08:40:40;;;;;;;9.77;5.60;;;24.00;99.90;;;;;;5058689;28;20025;-89
2022/07/21 08:43:08;;;;;;;6.63;5.28;;;24.00;99.90;;;;;;5057892;28;20037;-89
2022/07/21 08:45:34;;;;;;;11.32;5.47;;;24.10;99.90;;;;;;5058317;28;20029;-89
2022/07/21 08:48:00;;;;;;;8.07;5.72;;;24.20;99.90;;;;;;5057927;28;20028;-90
2022/07/21 08:50:29;;;;;;;7.25;5.40;;;24.30;99.90;;;;;;5058392;28;20067;-91
2022/07/21 08:52:55;;;;;;;10.52;5.75;;;24.40;99.90;;;;;;5075733;28;20115;-91
2022/07/21 08:55:20;;;;;;;10.30;5.85;;;24.30;99.90;;;;;;5075943;28;20118;-89
2022/07/21 08:57:46;;;;;;;8.25;5.88;;;24.30;99.90;;;;;;5058368;28;20032;-89
2022/07/21 09:00:12;;;;;;;7.80;5.60;;;24.30;99.90;;;;;;5057995;28;20588;-88
2022/07/21 09:02:38;;;;;;;7.10;5.35;;;24.30;99.90;;;;;;5075923;28;20036;-89
2022/07/21 09:05:09;;;;;;;10.07;5.38;;;24.20;99.90;;;;;;5075024;28;20458;-89
2022/07/21 09:07:54;;;;;;;7.97;5.90;;;24.20;99.90;;;;;;5057602;28;20024;-89
2022/07/21 09:10:29;;;;;;;9.98;5.20;;;24.10;99.90;;;;;;5074855;28;20056;-88
2022/07/21 09:13:01;;;;;;;9.95;4.72;;;24.10;99.90;;;;;;5057527;28;20032;-89
2022/07/21 09:15:28;;;;;;;6.57;4.95;;;24.20;99.90;;;;;;5075508;28;20032;-89
2022/07/21 09:18:06;;;;;;;10.65;5.32;;;24.20;99.90;;;;;;5057806;28;20059;-90
2022/07/21 09:20:32;;;;;;;7.93;4.82;;;24.20;99.90;;;;;;5057876;28;20025;-90
2022/07/21 09:23:02;;;;;;;7.50;4.82;;;24.30;99.90;;;;;;5057139;28;20047;-90
2022/07/21 09:25:40;;;;;;;6.90;4.63;;;24.40;99.90;;;;;;5057739;28;20027;-89
2022/07/21 09:28:24;;;;;;;8.75;4.70;;;24.60;99.20;;;;;;5056518;28;20309;-90
2022/07/21 09:31:04;;;;;;;9.80;4.68;;;24.60;99.40;;;;;;5057309;28;20033;-91
2022/07/21 09:33:35;;;;;;;6.65;4.82;;;24.80;99.40;;;;;;5057286;28;20072;-88
2022/07/21 09:36:18;;;;;;;9.52;5.22;;;24.80;99.50;;;;;;5056654;28;20035;-90
2022/07/21 09:38:52;;;;;;;7.63;5.80;;;24.70;99.20;;;;;;5057475;28;20024;-90
2022/07/21 09:41:22;;;;;;;8.13;4.75;;;24.70;99.10;;;;;;5056869;28;20034;-89
2022/07/21 09:43:56;;;;;;;7.32;5.35;;;24.70;98.70;;;;;;5057214;28;20098;-89
2022/07/21 09:46:29;;;;;;;8.77;5.18;;;24.70;99.10;;;;;;5057190;28;20029;-88
2022/07/21 09:49:01;;;;;;;5.13;3.80;;;24.60;99.40;;;;;;5056996;28;20025;-89
2022/07/21 09:51:30;;;;;;;6.65;4.40;;;24.60;97.70;;;;;;5056064;28;20032;-90
2022/07/21 09:54:10;;;;;;;6.15;4.50;;;24.60;98.00;;;;;;5055918;28;20473;-90
2022/07/21 09:56:41;;;;;;;5.13;3.47;;;24.50;98.30;;;;;;5056271;28;20021;-89
2022/07/21 09:59:09;;;;;;;4.50;3.10;;;24.60;96.90;;;;;;5056187;28;20146;-87
2022/07/21 10:01:36;;;;;;;5.88;3.10;;;24.70;96.50;;;;;;5056620;28;20115;-90
2022/07/21 10:04:02;;;;;;;5.97;3.15;;;24.70;96.00;;;;;;5056219;28;20075;-90
2022/07/21 10:06:31;;;;;;;2.90;2.38;;;24.70;95.90;;;;;;5074050;28;20069;-90
2022/07/21 10:08:58;;;;;;;3.97;2.63;;;24.70;94.20;;;;;;5056315;28;20029;-89
2022/07/21 10:11:25;;;;;;;4.78;3.45;;;24.70;94.40;;;;;;5056607;28;20048;-89
2022/07/21 10:13:51;;;;;;;6.13;2.80;;;24.80;94.30;;;;;;5056640;28;20043;-90
2022/07/21 10:16:17;;;;;;;5.32;2.50;;;24.90;94.50;;;;;;5056335;28;20024;-88
2022/07/21 10:19:10;;;;;;;9.18;2.30;;;24.90;94.10;;;;;;5057002;28;20029;-89
2022/07/21 10:22:00;;;;;;;4.32;2.58;;;24.90;93.80;;;;;;5056655;28;20122;-89
2022/07/21 10:24:29;;;;;;;4.47;2.63;;;25.00;94.00;;;;;;5056515;28;20045;-90
2022/07/21 10:27:01;;;;;;;5.65;2.83;;;25.00;93.60;;;;;;5056300;28;20049;-89
2022/07/21 10:29:56;;;;;;;6.88;3.58;;;25.10;93.90;;;;;;5056897;28;20032;-88
2022/07/21 10:32:38;;;;;;;4.80;2.80;;;25.20;93.60;;;;;;5073823;28;20067;-89
2022/07/21 10:35:30;;;;;;;3.85;2.55;;;25.10;93.60;;;;;;5056184;28;20048;-88
2022/07/21 10:37:57;;;;;;;3.30;2.38;;;25.30;93.00;;;;;;5056377;28;20051;-86
2022/07/21 10:40:22;;;;;;;3.17;2.67;;;25.30;92.70;;;;;;5056604;28;20087;-89
2022/07/21 10:43:00;;;;;;;3.53;2.42;;;25.20;92.50;;;;;;5056062;28;20040;-89
2022/07/21 10:45:31;;;;;;;2.63;2.10;;;25.30;92.70;;;;;;5056326;28;20523;-89
2022/07/21 10:47:57;;;;;;;3.38;2.50;;;25.40;92.20;;;;;;5056358;28;20024;-90
2022/07/21 10:50:35;;;;;;;3.22;2.53;;;25.50;92.40;;;;;;5074087;28;20024;-89
2022/07/21 10:53:15;;;;;;;4.60;2.65;;;25.60;91.90;;;;;;5055820;28;20033;-89
2022/07/21 10:55:52;;;;;;;4.60;2.70;;;25.60;92.00;;;;;;5056420;28;20103;-90
2022/07/21 10:58:25;;;;;;;2.95;2.35;;;25.80;91.80;;;;;;5055928;28;20355;-90
2022/07/21 11:00:52;;;;;;;3.85;2.30;;;26.00;91.60;;;;;;5056118;28;20060;-89
2022/07/21 11:03:31;;;;;;;3.60;2.42;;;26.00;91.00;;;;;;5066294;28;20067;-90
2022/07/21 11:06:09;;;;;;;4.15;2.55;;;26.20;90.60;;;;;;5054781;28;20036;-89
2022/07/21 11:08:50;;;;;;;3.00;2.42;;;26.30;90.30;;;;;;5055219;28;20052;-89
2022/07/21 11:11:20;;;;;;;2.63;2.40;;;26.30;90.10;;;;;;5074833;28;20128;-90
2022/07/21 11:14:09;;;;;;;4.53;2.42;;;26.10;90.20;;;;;;5075055;28;20028;-91
2022/07/21 11:16:52;;;;;;;5.20;2.13;;;26.30;89.90;;;;;;5057545;28;20024;-91
2022/07/21 11:19:50;;;;;;;4.28;2.53;;;26.40;89.60;;;;;;5056556;28;20039;-90
2022/07/21 11:22:21;;;;;;;3.75;2.10;;;26.40;89.60;;;;;;5029803;28;20044;-89
2022/07/21 11:24:55;;;;;;;3.90;2.60;;;26.30;89.10;;;;;;5036090;28;20036;-88
2022/07/21 11:27:23;;;;;;;2.83;2.20;;;26.50;88.30;;;;;;5052761;28;20049;-93
2022/07/21 11:29:52;;;;;;;2.92;2.40;;;26.50;87.20;;;;;;5044102;28;20465;-90
2022/07/21 11:32:18;;;;;;;3.78;2.38;;;26.60;88.10;;;;;;5071703;28;20546;-92
2022/07/21 11:34:49;;;;;;;4.43;2.17;;;26.60;86.40;;;;;;5077595;28;20457;-92
2022/07/21 11:37:17;;;;;;;2.28;2.05;;;26.70;84.90;;;;;;5059557;28;20492;-91
2022/07/21 11:39:43;;;;;;;3.00;2.33;;;26.60;85.40;;;;;;5055432;28;20098;-91
2022/07/21 11:42:12;;;;;;;3.95;2.45;;;26.60;86.10;;;;;;5058656;28;20465;-90
2022/07/21 11:44:39;;;;;;;2.15;1.95;;;26.50;85.60;;;;;;5059391;28;20094;-91
2022/07/21 11:47:06;;;;;;;4.03;2.20;;;26.60;83.90;;;;;;5076190;28;20032;-90
2022/07/21 11:49:35;;;;;;;4.03;2.20;;;26.70;84.80;;;;;;5059244;28;20031;-91
2022/07/21 11:52:18;;;;;;;2.85;2.13;;;26.70;85.20;;;;;;5076400;28;20028;-91
2022/07/21 11:54:45;;;;;;;2.28;2.08;;;26.50;85.50;;;;;;5076926;28;20111;-90
2022/07/21 11:57:14;;;;;;;4.03;2.17;;;26.50;85.30;;;;;;5058845;28;20052;-91
2022/07/21 11:59:43;;;;;;;4.30;2.22;;;26.60;85.00;;;;;;5077049;28;20453;-91
2022/07/21 12:02:14;;;;;;;3.97;2.03;;;26.50;84.90;;;;;;5076005;28;20024;-91
2022/07/21 12:05:00;;;;;;;4.00;2.13;;;26.60;84.20;;;;;;5072822;28;20027;-90
2022/07/21 12:07:33;;;;;;;2.78;2.10;;;26.60;84.80;;;;;;5056656;28;20035;-91
2022/07/21 12:10:02;;;;;;;4.32;2.28;;;26.70;84.50;;;;;;5059070;28;20029;-91
2022/07/21 12:12:33;;;;;;;2.75;2.10;;;26.70;84.40;;;;;;5076475;28;20074;-91
2022/07/21 12:15:22;;;;;;;5.90;2.05;;;26.80;84.50;;;;;;5058954;28;20036;-90
2022/07/21 12:17:50;;;;;;;2.50;1.95;;;26.80;82.40;;;;;;5076772;28;20024;-90
2022/07/21 12:20:25;;;;;;;3.65;2.38;;;26.90;82.50;;;;;;5057851;28;20123;-91
2022/07/21 12:22:51;;;;;;;5.03;2.35;;;27.00;80.60;;;;;;5058581;28;20056;-91
2022/07/21 12:25:29;;;;;;;4.80;2.33;;;27.00;80.90;;;;;;5057928;28;20032;-89
2022/07/21 12:27:56;;;;;;;2.17;1.88;;;27.00;81.00;;;;;;5067659;28;20053;-91
2022/07/21 12:30:38;;;;;;;2.47;2.28;;;27.00;80.60;;;;;;5067794;28;20025;-91
2022/07/21 12:33:10;;;;;;;3.40;2.30;;;27.10;79.60;;;;;;5041118;28;20040;-91
2022/07/21 12:35:41;;;;;;;2.40;2.08;;;27.20;80.40;;;;;;5046343;28;20112;-91
2022/07/21 12:38:11;;;;;;;;;;;27.30;80.10;;;;;;5048217;28;20157;-91
2022/07/21 12:40:42;;;;;;;3.63;2.08;;;27.30;79.80;;;;;;5052485;28;19909;-91
2022/07/21 12:43:17;;;;;;;2.75;2.15;;;27.40;80.20;;;;;;5040580;28;20025;-91
2022/07/21 12:45:48;;;;;;;2.22;1.90;;;27.60;79.00;;;;;;5065421;28;20454;-91
2022/07/21 12:48:14;;;;;;;;;;;27.70;78.10;;;;;;5049331;28;20032;-91
2022/07/21 12:50:42;;;;;;;2.20;1.75;;;27.70;76.10;;;;;;5058323;28;19943;-91